sensor_id;sensor_type;location;lat;lon;timestamp;temperature;humidity
20998;DHT22;10657;51.276;6.390;2024-02-14T00:00:04;9.20;99.90
20998;DHT22;10657;51.276;6.390;2024-02-14T00:02:31;9.20;99.90
20998;DHT22;10657;51.276;6.390;2024-02-14T00:04:58;9.20;99.90
20998;DHT22;10657;51.276;6.390;2024-02-14T00:07:24;9.20;99.90
20998;DHT22;10657;51.276;6.390;2024-02-14T00:09:53;9.20;99.90
20998;DHT22;10657;51.276;6.390;2024-02-14T00:12:20;9.30;99.90
20998;DHT22;10657;51.276;6.390;2024-02-14T00:14:47;9.30;99.90
20998;DHT22;10657;51.276;6.390;2024-02-14T00:17:15;9.20;99.90
20998;DHT22;10657;51.276;6.390;2024-02-14T00:19:42;9.30;99.90
20998;DHT22;10657;51.276;6.390;2024-02-14T00:22:08;9.30;99.90
20998;DHT22;10657;51.276;6.390;2024-02-14T00:24:35;9.30;99.90
20998;DHT22;10657;51.276;6.390;2024-02-14T00:27:02;9.30;99.90
20998;DHT22;10657;51.276;6.390;2024-02-14T00:29:30;9.30;99.90
20998;DHT22;10657;51.276;6.390;2024-02-14T00:31:56;9.30;99.90
20998;DHT22;10657;51.276;6.390;2024-02-14T00:34:23;9.30;99.90
20998;DHT22;10657;51.276;6.390;2024-02-14T00:36:50;9.20;99.90
20998;DHT22;10657;51.276;6.390;2024-02-14T00:39:17;9.10;99.90
20998;DHT22;10657;51.276;6.390;2024-02-14T00:41:46;9.10;99.90
20998;DHT22;10657;51.276;6.390;2024-02-14T00:44:14;9.20;99.90
20998;DHT22;10657;51.276;6.390;2024-02-14T00:46:45;9.30;99.90
20998;DHT22;10657;51.276;6.390;2024-02-14T00:49:12;9.30;99.90
20998;DHT22;10657;51.276;6.390;2024-02-14T00:51:40;9.30;99.90
20998;DHT22;10657;51.276;6.390;2024-02-14T00:54:07;9.30;99.90
20998;DHT22;10657;51.276;6.390;2024-02-14T00:56:37;9.30;99.90
20998;DHT22;10657;51.276;6.390;2024-02-14T00:59:04;9.30;99.90
20998;DHT22;10657;51.276;6.390;2024-02-14T01:01:31;9.30;99.90
20998;DHT22;10657;51.276;6.390;2024-02-14T01:03:58;9.40;99.90
20998;DHT22;10657;51.276;6.390;2024-02-14T01:06:24;9.40;99.90
20998;DHT22;10657;51.276;6.390;2024-02-14T01:08:51;9.40;99.90
20998;DHT22;10657;51.276;6.390;2024-02-14T01:11:18;9.40;99.90
20998;DHT22;10657;51.276;6.390;2024-02-14T01:13:45;9.50;99.90
20998;DHT22;10657;51.276;6.390;2024-02-14T01:16:12;9.40;99.90
20998;DHT22;10657;51.276;6.390;2024-02-14T01:18:38;9.40;99.90
20998;DHT22;10657;51.276;6.390;2024-02-14T01:21:06;9.50;99.90
20998;DHT22;10657;51.276;6.390;2024-02-14T01:23:33;9.50;99.90
20998;DHT22;10657;51.276;6.390;2024-02-14T01:26:00;9.50;99.90
20998;DHT22;10657;51.276;6.390;2024-02-14T01:28:27;9.50;99.90
20998;DHT22;10657;51.276;6.390;2024-02-14T01:30:53;9.50;99.90
20998;DHT22;10657;51.276;6.390;2024-02-14T01:33:20;9.50;99.90
20998;DHT22;10657;51.276;6.390;2024-02-14T01:35:47;9.50;99.90
20998;DHT22;10657;51.276;6.390;2024-02-14T01:38:14;9.50;99.90
20998;DHT22;10657;51.276;6.390;2024-02-14T01:40:42;9.50;99.90
20998;DHT22;10657;51.276;6.390;2024-02-14T01:43:10;9.50;99.90
20998;DHT22;10657;51.276;6.390;2024-02-14T01:45:37;9.50;99.90
20998;DHT22;10657;51.276;6.390;2024-02-14T01:48:06;9.60;99.90
20998;DHT22;10657;51.276;6.390;2024-02-14T01:50:34;9.60;99.90
20998;DHT22;10657;51.276;6.390;2024-02-14T01:53:02;9.60;99.90
20998;DHT22;10657;51.276;6.390;2024-02-14T01:55:32;9.60;99.90
20998;DHT22;10657;51.276;6.390;2024-02-14T01:58:00;9.50;99.90
20998;DHT22;10657;51.276;6.390;2024-02-14T02:00:30;9.50;99.90
20998;DHT22;10657;51.276;6.390;2024-02-14T02:02:58;9.60;99.90
20998;DHT22;10657;51.276;6.390;2024-02-14T02:05:25;9.60;99.90
20998;DHT22;10657;51.276;6.390;2024-02-14T02:07:52;9.60;99.90
20998;DHT22;10657;51.276;6.390;2024-02-14T02:10:20;9.60;99.90
20998;DHT22;10657;51.276;6.390;2024-02-14T02:12:49;9.70;99.90
20998;DHT22;10657;51.276;6.390;2024-02-14T02:15:17;9.60;99.90
20998;DHT22;10657;51.276;6.390;2024-02-14T02:17:44;9.70;99.90
20998;DHT22;10657;51.276;6.390;2024-02-14T02:20:15;9.70;99.90
20998;DHT22;10657;51.276;6.390;2024-02-14T02:22:47;9.70;99.90
20998;DHT22;10657;51.276;6.390;2024-02-14T02:25:14;9.70;99.90
20998;DHT22;10657;51.276;6.390;2024-02-14T02:27:41;9.70;99.90
20998;DHT22;10657;51.276;6.390;2024-02-14T02:30:08;9.70;99.90
20998;DHT22;10657;51.276;6.390;2024-02-14T02:32:36;9.70;99.90
20998;DHT22;10657;51.276;6.390;2024-02-14T02:35:04;9.70;99.90
20998;DHT22;10657;51.276;6.390;2024-02-14T02:37:31;9.70;99.90
20998;DHT22;10657;51.276;6.390;2024-02-14T02:39:58;9.70;99.90
20998;DHT22;10657;51.276;6.390;2024-02-14T02:42:24;9.70;99.90
20998;DHT22;10657;51.276;6.390;2024-02-14T02:44:51;9.80;99.90
20998;DHT22;10657;51.276;6.390;2024-02-14T02:47:18;9.70;99.90
20998;DHT22;10657;51.276;6.390;2024-02-14T02:49:45;9.70;99.90
20998;DHT22;10657;51.276;6.390;2024-02-14T02:52:12;9.70;99.90
20998;DHT22;10657;51.276;6.390;2024-02-14T02:54:39;9.70;99.90
20998;DHT22;10657;51.276;6.390;2024-02-14T02:57:07;9.70;99.90
20998;DHT22;10657;51.276;6.390;2024-02-14T02:59:35;9.70;99.90
20998;DHT22;10657;51.276;6.390;2024-02-14T03:02:03;9.60;99.90
20998;DHT22;10657;51.276;6.390;2024-02-14T03:04:29;9.50;99.90
20998;DHT22;10657;51.276;6.390;2024-02-14T03:07:17;9.50;99.90
20998;DHT22;10657;51.276;6.390;2024-02-14T03:09:45;9.50;99.90
20998;DHT22;10657;51.276;6.390;2024-02-14T03:12:12;9.40;99.90
20998;DHT22;10657;51.276;6.390;2024-02-14T03:14:42;9.50;99.90
20998;DHT22;10657;51.276;6.390;2024-02-14T03:17:10;9.50;99.90
20998;DHT22;10657;51.276;6.390;2024-02-14T03:19:37;9.50;99.90
20998;DHT22;10657;51.276;6.390;2024-02-14T03:22:06;9.50;99.90
20998;DHT22;10657;51.276;6.390;2024-02-14T03:24:35;9.50;99.90
20998;DHT22;10657;51.276;6.390;2024-02-14T03:27:03;9.50;99.90
20998;DHT22;10657;51.276;6.390;2024-02-14T03:29:31;9.50;99.90
20998;DHT22;10657;51.276;6.390;2024-02-14T03:31:59;9.50;99.90
20998;DHT22;10657;51.276;6.390;2024-02-14T03:34:31;9.50;99.90
20998;DHT22;10657;51.276;6.390;2024-02-14T03:37:02;9.50;99.90
20998;DHT22;10657;51.276;6.390;2024-02-14T03:39:29;9.60;99.90
20998;DHT22;10657;51.276;6.390;2024-02-14T03:41:57;9.50;99.90
20998;DHT22;10657;51.276;6.390;2024-02-14T03:44:24;9.50;99.90
20998;DHT22;10657;51.276;6.390;2024-02-14T03:46:50;9.60;99.90
20998;DHT22;10657;51.276;6.390;2024-02-14T03:49:17;9.60;99.90
20998;DHT22;10657;51.276;6.390;2024-02-14T03:51:44;9.60;99.90
20998;DHT22;10657;51.276;6.390;2024-02-14T03:54:11;9.60;99.90
20998;DHT22;10657;51.276;6.390;2024-02-14T03:56:38;9.60;99.90
20998;DHT22;10657;51.276;6.390;2024-02-14T03:59:05;9.60;99.90
20998;DHT22;10657;51.276;6.390;2024-02-14T04:01:32;9.60;99.90
20998;DHT22;10657;51.276;6.390;2024-02-14T04:03:59;9.60;99.90
20998;DHT22;10657;51.276;6.390;2024-02-14T04:06:26;9.60;99.90
20998;DHT22;10657;51.276;6.390;2024-02-14T04:08:53;9.60;99.90
20998;DHT22;10657;51.276;6.390;2024-02-14T04:11:20;9.70;99.90
20998;DHT22;10657;51.276;6.390;2024-02-14T04:13:47;9.60;99.90
20998;DHT22;10657;51.276;6.390;2024-02-14T04:16:14;9.60;99.90
20998;DHT22;10657;51.276;6.390;2024-02-14T04:18:42;9.60;99.90
20998;DHT22;10657;51.276;6.390;2024-02-14T04:21:09;9.60;99.90
20998;DHT22;10657;51.276;6.390;2024-02-14T04:23:36;9.60;99.90
20998;DHT22;10657;51.276;6.390;2024-02-14T04:26:03;9.60;99.90
20998;DHT22;10657;51.276;6.390;2024-02-14T04:28:30;9.60;99.90
20998;DHT22;10657;51.276;6.390;2024-02-14T04:30:56;9.60;99.90
20998;DHT22;10657;51.276;6.390;2024-02-14T04:33:23;9.70;99.90
20998;DHT22;10657;51.276;6.390;2024-02-14T04:35:57;9.60;99.90
20998;DHT22;10657;51.276;6.390;2024-02-14T04:38:27;9.70;99.90
20998;DHT22;10657;51.276;6.390;2024-02-14T04:40:56;9.60;99.90
20998;DHT22;10657;51.276;6.390;2024-02-14T04:43:25;9.70;99.90
20998;DHT22;10657;51.276;6.390;2024-02-14T04:45:53;9.70;99.90
20998;DHT22;10657;51.276;6.390;2024-02-14T04:48:20;9.70;99.90
20998;DHT22;10657;51.276;6.390;2024-02-14T04:50:47;9.70;99.90
20998;DHT22;10657;51.276;6.390;2024-02-14T04:53:13;9.70;99.90
20998;DHT22;10657;51.276;6.390;2024-02-14T04:55:40;9.70;99.90
20998;DHT22;10657;51.276;6.390;2024-02-14T04:58:07;9.70;99.90
20998;DHT22;10657;51.276;6.390;2024-02-14T05:00:33;9.80;99.90
20998;DHT22;10657;51.276;6.390;2024-02-14T05:03:00;9.80;99.90
20998;DHT22;10657;51.276;6.390;2024-02-14T05:05:28;9.70;99.90
20998;DHT22;10657;51.276;6.390;2024-02-14T05:07:54;9.70;99.90
20998;DHT22;10657;51.276;6.390;2024-02-14T05:10:21;9.70;99.90
20998;DHT22;10657;51.276;6.390;2024-02-14T05:12:48;9.60;99.90
20998;DHT22;10657;51.276;6.390;2024-02-14T05:15:15;9.60;99.90
20998;DHT22;10657;51.276;6.390;2024-02-14T05:17:42;9.70;99.90
20998;DHT22;10657;51.276;6.390;2024-02-14T05:20:12;9.60;99.90
20998;DHT22;10657;51.276;6.390;2024-02-14T05:22:39;9.60;99.90
20998;DHT22;10657;51.276;6.390;2024-02-14T05:25:06;9.60;99.90
20998;DHT22;10657;51.276;6.390;2024-02-14T05:27:36;9.60;99.90
20998;DHT22;10657;51.276;6.390;2024-02-14T05:30:04;9.50;99.90
20998;DHT22;10657;51.276;6.390;2024-02-14T05:32:36;9.60;99.90
20998;DHT22;10657;51.276;6.390;2024-02-14T05:35:03;9.50;99.90
20998;DHT22;10657;51.276;6.390;2024-02-14T05:37:32;9.60;99.90
20998;DHT22;10657;51.276;6.390;2024-02-14T05:40:01;9.60;99.90
20998;DHT22;10657;51.276;6.390;2024-02-14T05:42:29;9.60;99.90
20998;DHT22;10657;51.276;6.390;2024-02-14T05:44:55;9.60;99.90
20998;DHT22;10657;51.276;6.390;2024-02-14T05:47:22;9.60;99.90
20998;DHT22;10657;51.276;6.390;2024-02-14T05:49:49;9.50;99.90
20998;DHT22;10657;51.276;6.390;2024-02-14T05:52:15;9.60;99.90
20998;DHT22;10657;51.276;6.390;2024-02-14T05:54:42;9.60;99.90
20998;DHT22;10657;51.276;6.390;2024-02-14T05:57:09;9.50;99.90
20998;DHT22;10657;51.276;6.390;2024-02-14T05:59:36;9.60;99.90
20998;DHT22;10657;51.276;6.390;2024-02-14T06:02:04;9.60;99.90
20998;DHT22;10657;51.276;6.390;2024-02-14T06:04:32;9.50;99.90
20998;DHT22;10657;51.276;6.390;2024-02-14T06:06:59;9.60;99.90
20998;DHT22;10657;51.276;6.390;2024-02-14T06:09:25;9.60;99.90
20998;DHT22;10657;51.276;6.390;2024-02-14T06:11:52;9.60;99.90
20998;DHT22;10657;51.276;6.390;2024-02-14T06:14:19;9.60;99.90
20998;DHT22;10657;51.276;6.390;2024-02-14T06:16:46;9.70;99.90
20998;DHT22;10657;51.276;6.390;2024-02-14T06:19:13;9.60;99.90
20998;DHT22;10657;51.276;6.390;2024-02-14T06:21:39;9.60;99.90
20998;DHT22;10657;51.276;6.390;2024-02-14T06:24:06;9.60;99.90
20998;DHT22;10657;51.276;6.390;2024-02-14T06:26:33;9.60;99.90
20998;DHT22;10657;51.276;6.390;2024-02-14T06:29:04;9.60;99.90
20998;DHT22;10657;51.276;6.390;2024-02-14T06:31:33;9.60;99.90
20998;DHT22;10657;51.276;6.390;2024-02-14T06:33:59;9.60;99.90
20998;DHT22;10657;51.276;6.390;2024-02-14T06:36:27;9.60;99.90
20998;DHT22;10657;51.276;6.390;2024-02-14T06:38:53;9.60;99.90
20998;DHT22;10657;51.276;6.390;2024-02-14T06:41:20;9.60;99.90
20998;DHT22;10657;51.276;6.390;2024-02-14T06:43:47;9.60;99.90
20998;DHT22;10657;51.276;6.390;2024-02-14T06:46:14;9.60;99.90
20998;DHT22;10657;51.276;6.390;2024-02-14T06:48:41;9.60;99.90
20998;DHT22;10657;51.276;6.390;2024-02-14T06:51:08;9.70;99.90
20998;DHT22;10657;51.276;6.390;2024-02-14T06:53:37;9.70;99.90
20998;DHT22;10657;51.276;6.390;2024-02-14T06:56:04;9.70;99.90
20998;DHT22;10657;51.276;6.390;2024-02-14T06:58:31;9.70;99.90
20998;DHT22;10657;51.276;6.390;2024-02-14T07:00:57;9.70;99.90
20998;DHT22;10657;51.276;6.390;2024-02-14T07:03:24;9.80;99.90
20998;DHT22;10657;51.276;6.390;2024-02-14T07:05:51;9.80;99.90
20998;DHT22;10657;51.276;6.390;2024-02-14T07:08:19;9.80;99.90
20998;DHT22;10657;51.276;6.390;2024-02-14T07:10:45;9.80;99.90
20998;DHT22;10657;51.276;6.390;2024-02-14T07:13:12;9.90;99.90
20998;DHT22;10657;51.276;6.390;2024-02-14T07:15:43;9.80;99.90
20998;DHT22;10657;51.276;6.390;2024-02-14T07:18:09;9.80;99.90
20998;DHT22;10657;51.276;6.390;2024-02-14T07:20:36;9.90;99.90
20998;DHT22;10657;51.276;6.390;2024-02-14T07:23:03;9.90;99.90
20998;DHT22;10657;51.276;6.390;2024-02-14T07:25:30;9.90;99.90
20998;DHT22;10657;51.276;6.390;2024-02-14T07:27:57;9.90;99.90
20998;DHT22;10657;51.276;6.390;2024-02-14T07:30:24;9.90;99.90
20998;DHT22;10657;51.276;6.390;2024-02-14T07:32:51;9.90;99.90
20998;DHT22;10657;51.276;6.390;2024-02-14T07:35:18;10.00;99.90
20998;DHT22;10657;51.276;6.390;2024-02-14T07:37:45;10.00;99.90
20998;DHT22;10657;51.276;6.390;2024-02-14T07:40:12;10.00;99.90
20998;DHT22;10657;51.276;6.390;2024-02-14T07:42:43;10.00;99.90
20998;DHT22;10657;51.276;6.390;2024-02-14T07:45:11;10.00;99.90
20998;DHT22;10657;51.276;6.390;2024-02-14T07:47:39;10.10;99.90
20998;DHT22;10657;51.276;6.390;2024-02-14T07:50:10;10.10;99.90
20998;DHT22;10657;51.276;6.390;2024-02-14T07:52:41;10.10;99.90
20998;DHT22;10657;51.276;6.390;2024-02-14T07:55:09;10.10;99.90
20998;DHT22;10657;51.276;6.390;2024-02-14T07:57:39;10.00;99.90
20998;DHT22;10657;51.276;6.390;2024-02-14T08:00:06;10.10;99.90
20998;DHT22;10657;51.276;6.390;2024-02-14T08:02:36;10.10;99.90
20998;DHT22;10657;51.276;6.390;2024-02-14T08:05:06;10.10;99.90
20998;DHT22;10657;51.276;6.390;2024-02-14T08:07:35;10.10;99.90
20998;DHT22;10657;51.276;6.390;2024-02-14T08:10:02;10.10;99.90
20998;DHT22;10657;51.276;6.390;2024-02-14T08:12:28;10.10;99.90
20998;DHT22;10657;51.276;6.390;2024-02-14T08:14:56;10.10;99.90
20998;DHT22;10657;51.276;6.390;2024-02-14T08:17:23;10.10;99.90
20998;DHT22;10657;51.276;6.390;2024-02-14T08:19:50;10.10;99.90
20998;DHT22;10657;51.276;6.390;2024-02-14T08:22:17;10.10;99.90
20998;DHT22;10657;51.276;6.390;2024-02-14T08:24:43;10.10;99.90
20998;DHT22;10657;51.276;6.390;2024-02-14T08:27:10;10.20;99.90
20998;DHT22;10657;51.276;6.390;2024-02-14T08:29:37;10.30;99.90
20998;DHT22;10657;51.276;6.390;2024-02-14T08:32:04;10.30;99.90
20998;DHT22;10657;51.276;6.390;2024-02-14T08:34:32;10.30;99.90
20998;DHT22;10657;51.276;6.390;2024-02-14T08:36:59;10.30;99.90
20998;DHT22;10657;51.276;6.390;2024-02-14T08:39:26;10.30;99.90
20998;DHT22;10657;51.276;6.390;2024-02-14T08:41:53;10.40;99.90
20998;DHT22;10657;51.276;6.390;2024-02-14T08:44:20;10.40;99.90
20998;DHT22;10657;51.276;6.390;2024-02-14T08:46:46;10.50;99.90
20998;DHT22;10657;51.276;6.390;2024-02-14T08:49:15;10.50;99.90
20998;DHT22;10657;51.276;6.390;2024-02-14T08:51:42;10.60;99.90
20998;DHT22;10657;51.276;6.390;2024-02-14T08:54:12;10.50;99.90
20998;DHT22;10657;51.276;6.390;2024-02-14T08:56:40;10.50;99.90
20998;DHT22;10657;51.276;6.390;2024-02-14T08:59:07;10.60;99.90
20998;DHT22;10657;51.276;6.390;2024-02-14T09:01:33;10.70;99.90
20998;DHT22;10657;51.276;6.390;2024-02-14T09:04:00;10.70;99.90
20998;DHT22;10657;51.276;6.390;2024-02-14T09:06:27;10.70;99.90
20998;DHT22;10657;51.276;6.390;2024-02-14T09:08:54;10.70;99.90
20998;DHT22;10657;51.276;6.390;2024-02-14T09:11:21;10.70;99.90
20998;DHT22;10657;51.276;6.390;2024-02-14T09:13:49;10.80;99.90
20998;DHT22;10657;51.276;6.390;2024-02-14T09:16:20;10.80;99.90
20998;DHT22;10657;51.276;6.390;2024-02-14T09:18:48;10.80;99.90
20998;DHT22;10657;51.276;6.390;2024-02-14T09:21:15;10.90;99.90
20998;DHT22;10657;51.276;6.390;2024-02-14T09:23:46;10.90;99.90
20998;DHT22;10657;51.276;6.390;2024-02-14T09:26:13;10.90;99.90
20998;DHT22;10657;51.276;6.390;2024-02-14T09:28:40;11.00;99.90
20998;DHT22;10657;51.276;6.390;2024-02-14T09:31:07;11.00;99.90
20998;DHT22;10657;51.276;6.390;2024-02-14T09:33:36;11.00;99.90
20998;DHT22;10657;51.276;6.390;2024-02-14T09:36:04;11.00;99.90
20998;DHT22;10657;51.276;6.390;2024-02-14T09:38:31;11.00;99.90
20998;DHT22;10657;51.276;6.390;2024-02-14T09:41:05;11.10;99.90
20998;DHT22;10657;51.276;6.390;2024-02-14T09:43:36;11.10;99.90
20998;DHT22;10657;51.276;6.390;2024-02-14T09:46:04;11.20;99.90
20998;DHT22;10657;51.276;6.390;2024-02-14T09:48:34;11.20;99.90
20998;DHT22;10657;51.276;6.390;2024-02-14T09:51:02;11.20;99.90
20998;DHT22;10657;51.276;6.390;2024-02-14T09:53:29;11.20;99.90
20998;DHT22;10657;51.276;6.390;2024-02-14T09:55:57;11.20;99.90
20998;DHT22;10657;51.276;6.390;2024-02-14T09:58:25;11.30;99.90
20998;DHT22;10657;51.276;6.390;2024-02-14T10:01:01;11.30;99.90
20998;DHT22;10657;51.276;6.390;2024-02-14T10:10:15;11.30;99.90
20998;DHT22;10657;51.276;6.390;2024-02-14T10:12:42;11.30;99.90
20998;DHT22;10657;51.276;6.390;2024-02-14T10:15:09;11.20;99.90
20998;DHT22;10657;51.276;6.390;2024-02-14T10:17:39;11.30;99.90
20998;DHT22;10657;51.276;6.390;2024-02-14T10:20:07;11.30;99.90
20998;DHT22;10657;51.276;6.390;2024-02-14T10:22:35;11.30;99.90
20998;DHT22;10657;51.276;6.390;2024-02-14T10:25:03;11.40;99.90
20998;DHT22;10657;51.276;6.390;2024-02-14T10:27:30;11.30;99.90
20998;DHT22;10657;51.276;6.390;2024-02-14T10:30:00;11.30;99.90
20998;DHT22;10657;51.276;6.390;2024-02-14T10:32:27;11.40;99.90
20998;DHT22;10657;51.276;6.390;2024-02-14T10:34:54;11.40;99.90
20998;DHT22;10657;51.276;6.390;2024-02-14T10:37:21;11.40;99.90
20998;DHT22;10657;51.276;6.390;2024-02-14T10:39:51;11.50;99.90
20998;DHT22;10657;51.276;6.390;2024-02-14T10:42:19;11.50;99.90
20998;DHT22;10657;51.276;6.390;2024-02-14T10:44:45;11.60;99.90
20998;DHT22;10657;51.276;6.390;2024-02-14T10:47:19;11.70;99.90
20998;DHT22;10657;51.276;6.390;2024-02-14T10:49:48;11.70;99.90
20998;DHT22;10657;51.276;6.390;2024-02-14T10:52:18;11.80;99.90
20998;DHT22;10657;51.276;6.390;2024-02-14T10:54:54;11.80;99.90
20998;DHT22;10657;51.276;6.390;2024-02-14T10:57:24;11.90;99.90
20998;DHT22;10657;51.276;6.390;2024-02-14T10:59:51;11.80;99.90
20998;DHT22;10657;51.276;6.390;2024-02-14T11:02:20;11.90;99.90
20998;DHT22;10657;51.276;6.390;2024-02-14T11:04:49;11.90;99.90
20998;DHT22;10657;51.276;6.390;2024-02-14T11:07:22;11.90;99.90
20998;DHT22;10657;51.276;6.390;2024-02-14T11:10:07;12.00;99.90
20998;DHT22;10657;51.276;6.390;2024-02-14T11:12:35;12.00;99.90
20998;DHT22;10657;51.276;6.390;2024-02-14T11:15:10;12.10;99.90
20998;DHT22;10657;51.276;6.390;2024-02-14T11:17:39;12.10;99.90
20998;DHT22;10657;51.276;6.390;2024-02-14T11:22:53;12.20;99.90
20998;DHT22;10657;51.276;6.390;2024-02-14T11:25:31;12.20;99.90
20998;DHT22;10657;51.276;6.390;2024-02-14T11:27:58;12.30;99.90
20998;DHT22;10657;51.276;6.390;2024-02-14T11:30:29;12.30;99.90
20998;DHT22;10657;51.276;6.390;2024-02-14T11:33:16;12.20;99.90
20998;DHT22;10657;51.276;6.390;2024-02-14T11:35:46;12.20;99.90
20998;DHT22;10657;51.276;6.390;2024-02-14T11:38:14;12.30;99.90
20998;DHT22;10657;51.276;6.390;2024-02-14T11:40:41;12.20;99.90
20998;DHT22;10657;51.276;6.390;2024-02-14T11:43:12;12.20;99.90
20998;DHT22;10657;51.276;6.390;2024-02-14T11:45:41;12.10;99.90
20998;DHT22;10657;51.276;6.390;2024-02-14T11:48:10;12.00;99.90
20998;DHT22;10657;51.276;6.390;2024-02-14T11:50:41;12.00;99.90
20998;DHT22;10657;51.276;6.390;2024-02-14T11:53:08;11.90;99.90
20998;DHT22;10657;51.276;6.390;2024-02-14T11:55:38;11.90;99.90
20998;DHT22;10657;51.276;6.390;2024-02-14T11:58:12;11.90;99.90
20998;DHT22;10657;51.276;6.390;2024-02-14T12:00:40;11.80;99.90
20998;DHT22;10657;51.276;6.390;2024-02-14T12:03:12;11.70;99.90
20998;DHT22;10657;51.276;6.390;2024-02-14T12:05:39;11.70;99.90
20998;DHT22;10657;51.276;6.390;2024-02-14T12:08:08;11.80;99.90
20998;DHT22;10657;51.276;6.390;2024-02-14T12:10:36;11.80;99.90
20998;DHT22;10657;51.276;6.390;2024-02-14T12:13:10;11.80;99.90
20998;DHT22;10657;51.276;6.390;2024-02-14T12:15:39;11.80;99.90
20998;DHT22;10657;51.276;6.390;2024-02-14T12:18:08;11.80;99.90
20998;DHT22;10657;51.276;6.390;2024-02-14T12:20:35;11.80;99.90
20998;DHT22;10657;51.276;6.390;2024-02-14T12:23:04;11.70;99.90
20998;DHT22;10657;51.276;6.390;2024-02-14T12:25:32;11.70;99.90
20998;DHT22;10657;51.276;6.390;2024-02-14T12:27:59;11.80;99.90
20998;DHT22;10657;51.276;6.390;2024-02-14T12:30:47;11.80;99.90
20998;DHT22;10657;51.276;6.390;2024-02-14T12:33:26;11.80;99.90
20998;DHT22;10657;51.276;6.390;2024-02-14T12:35:55;11.90;99.90
20998;DHT22;10657;51.276;6.390;2024-02-14T12:38:24;12.00;99.90
20998;DHT22;10657;51.276;6.390;2024-02-14T12:40:51;12.00;99.90
20998;DHT22;10657;51.276;6.390;2024-02-14T12:43:21;11.90;99.90
20998;DHT22;10657;51.276;6.390;2024-02-14T12:45:48;12.00;99.90
20998;DHT22;10657;51.276;6.390;2024-02-14T12:48:24;12.00;99.90
20998;DHT22;10657;51.276;6.390;2024-02-14T12:50:54;12.10;99.90
20998;DHT22;10657;51.276;6.390;2024-02-14T12:53:23;12.20;99.90
20998;DHT22;10657;51.276;6.390;2024-02-14T12:55:50;12.30;99.90
20998;DHT22;10657;51.276;6.390;2024-02-14T12:58:17;12.20;99.90
20998;DHT22;10657;51.276;6.390;2024-02-14T13:00:44;12.30;99.90
20998;DHT22;10657;51.276;6.390;2024-02-14T13:03:11;12.20;99.90
20998;DHT22;10657;51.276;6.390;2024-02-14T13:05:42;12.30;99.90
20998;DHT22;10657;51.276;6.390;2024-02-14T13:08:09;12.30;99.90
20998;DHT22;10657;51.276;6.390;2024-02-14T13:10:39;12.30;99.90
20998;DHT22;10657;51.276;6.390;2024-02-14T13:13:06;12.30;99.90
20998;DHT22;10657;51.276;6.390;2024-02-14T13:15:33;12.30;99.90
20998;DHT22;10657;51.276;6.390;2024-02-14T13:17:59;12.30;99.90
20998;DHT22;10657;51.276;6.390;2024-02-14T13:20:27;12.20;99.90
20998;DHT22;10657;51.276;6.390;2024-02-14T13:22:55;12.20;99.90
20998;DHT22;10657;51.276;6.390;2024-02-14T13:25:21;12.10;99.90
20998;DHT22;10657;51.276;6.390;2024-02-14T13:27:48;12.00;99.90
20998;DHT22;10657;51.276;6.390;2024-02-14T13:30:15;12.00;99.90
20998;DHT22;10657;51.276;6.390;2024-02-14T13:32:42;11.90;99.90
20998;DHT22;10657;51.276;6.390;2024-02-14T13:35:09;11.90;99.90
20998;DHT22;10657;51.276;6.390;2024-02-14T13:37:37;11.90;99.90
20998;DHT22;10657;51.276;6.390;2024-02-14T13:40:05;11.90;99.90
20998;DHT22;10657;51.276;6.390;2024-02-14T13:42:37;11.90;99.90
20998;DHT22;10657;51.276;6.390;2024-02-14T13:45:07;12.00;99.90
20998;DHT22;10657;51.276;6.390;2024-02-14T13:47:38;12.00;99.90
20998;DHT22;10657;51.276;6.390;2024-02-14T13:50:09;11.90;99.90
20998;DHT22;10657;51.276;6.390;2024-02-14T13:52:36;11.90;99.90
20998;DHT22;10657;51.276;6.390;2024-02-14T13:55:03;11.90;99.90
20998;DHT22;10657;51.276;6.390;2024-02-14T13:57:38;11.90;99.90
20998;DHT22;10657;51.276;6.390;2024-02-14T14:00:06;11.80;99.90
20998;DHT22;10657;51.276;6.390;2024-02-14T14:02:36;11.90;99.90
20998;DHT22;10657;51.276;6.390;2024-02-14T14:05:08;11.80;99.90
20998;DHT22;10657;51.276;6.390;2024-02-14T14:07:36;11.70;99.90
20998;DHT22;10657;51.276;6.390;2024-02-14T14:10:22;11.80;99.90
20998;DHT22;10657;51.276;6.390;2024-02-14T14:12:51;11.70;99.90
20998;DHT22;10657;51.276;6.390;2024-02-14T14:15:18;11.70;99.90
20998;DHT22;10657;51.276;6.390;2024-02-14T14:17:45;11.80;99.90
20998;DHT22;10657;51.276;6.390;2024-02-14T14:20:13;11.70;99.90
20998;DHT22;10657;51.276;6.390;2024-02-14T14:22:39;11.80;99.90
20998;DHT22;10657;51.276;6.390;2024-02-14T14:25:06;11.80;99.90
20998;DHT22;10657;51.276;6.390;2024-02-14T14:27:35;11.70;99.90
20998;DHT22;10657;51.276;6.390;2024-02-14T14:30:02;11.80;99.90
20998;DHT22;10657;51.276;6.390;2024-02-14T14:32:29;11.70;99.90
20998;DHT22;10657;51.276;6.390;2024-02-14T14:34:56;11.70;99.90
20998;DHT22;10657;51.276;6.390;2024-02-14T14:37:23;11.70;99.90
20998;DHT22;10657;51.276;6.390;2024-02-14T14:39:49;11.70;99.90
20998;DHT22;10657;51.276;6.390;2024-02-14T14:42:16;11.70;99.90
20998;DHT22;10657;51.276;6.390;2024-02-14T14:44:44;11.70;99.90
20998;DHT22;10657;51.276;6.390;2024-02-14T14:47:11;11.80;99.90
20998;DHT22;10657;51.276;6.390;2024-02-14T14:49:38;11.80;99.90
20998;DHT22;10657;51.276;6.390;2024-02-14T14:52:05;11.80;99.90
20998;DHT22;10657;51.276;6.390;2024-02-14T14:54:32;11.80;99.90
20998;DHT22;10657;51.276;6.390;2024-02-14T14:56:59;11.70;99.90
20998;DHT22;10657;51.276;6.390;2024-02-14T14:59:26;11.80;99.90
20998;DHT22;10657;51.276;6.390;2024-02-14T15:01:53;11.70;99.90
20998;DHT22;10657;51.276;6.390;2024-02-14T15:04:20;11.70;99.90
20998;DHT22;10657;51.276;6.390;2024-02-14T15:06:47;11.70;99.90
20998;DHT22;10657;51.276;6.390;2024-02-14T15:09:17;11.70;99.90
20998;DHT22;10657;51.276;6.390;2024-02-14T15:11:44;11.70;99.90
20998;DHT22;10657;51.276;6.390;2024-02-14T15:14:11;11.80;99.90
20998;DHT22;10657;51.276;6.390;2024-02-14T15:16:37;11.80;99.90
20998;DHT22;10657;51.276;6.390;2024-02-14T15:19:04;11.80;99.90
20998;DHT22;10657;51.276;6.390;2024-02-14T15:21:31;11.80;99.90
20998;DHT22;10657;51.276;6.390;2024-02-14T15:23:57;11.70;99.90
20998;DHT22;10657;51.276;6.390;2024-02-14T15:26:24;11.80;99.90
20998;DHT22;10657;51.276;6.390;2024-02-14T15:28:51;11.80;99.90
20998;DHT22;10657;51.276;6.390;2024-02-14T15:31:36;11.80;99.90
20998;DHT22;10657;51.276;6.390;2024-02-14T15:34:21;11.80;99.90
20998;DHT22;10657;51.276;6.390;2024-02-14T15:36:48;11.80;99.90
20998;DHT22;10657;51.276;6.390;2024-02-14T15:39:15;11.80;99.90
20998;DHT22;10657;51.276;6.390;2024-02-14T15:41:42;11.80;99.90
20998;DHT22;10657;51.276;6.390;2024-02-14T15:44:08;11.80;99.90
20998;DHT22;10657;51.276;6.390;2024-02-14T15:46:35;11.80;99.90
20998;DHT22;10657;51.276;6.390;2024-02-14T15:49:02;11.80;99.90
20998;DHT22;10657;51.276;6.390;2024-02-14T15:51:28;11.80;99.90